createdAt,value
2022-10-14T00:01:24.976Z,25.20
2022-10-14T00:04:04.862Z,23.85
2022-10-14T00:06:44.456Z,27.85
2022-10-14T00:09:26.051Z,23.83
2022-10-14T00:12:05.848Z,23.00
2022-10-14T00:14:45.519Z,25.48
2022-10-14T00:17:24.096Z,25.85
2022-10-14T00:20:04.346Z,27.73
2022-10-14T00:22:45.465Z,25.33
2022-10-14T00:25:26.295Z,25.80
2022-10-14T00:28:03.738Z,23.95
2022-10-14T00:30:43.199Z,23.48
2022-10-14T00:33:21.576Z,26.52
2022-10-14T00:36:04.097Z,26.73
2022-10-14T00:38:45.813Z,29.73
2022-10-14T00:41:25.439Z,25.35
2022-10-14T00:44:15.876Z,21.88
2022-10-14T00:46:55.603Z,30.63
2022-10-14T00:49:42.140Z,25.08
2022-10-14T00:52:24.131Z,22.90
2022-10-14T00:55:18.866Z,28.30
2022-10-14T00:57:58.167Z,27.35
2022-10-14T01:00:39.223Z,29.98
2022-10-14T01:03:23.197Z,28.52
2022-10-14T01:06:16.982Z,29.15
2022-10-14T01:09:07.529Z,29.83
2022-10-14T01:11:46.001Z,26.88
2022-10-14T01:14:43.415Z,40.70
2022-10-14T01:17:51.937Z,30.08
2022-10-14T01:20:31.995Z,33.67
2022-10-14T01:23:32.774Z,31.98
2022-10-14T01:26:47.890Z,32.10
2022-10-14T01:30:03.034Z,32.50
2022-10-14T01:32:59.470Z,34.25
2022-10-14T01:35:58.192Z,28.15
2022-10-14T01:39:14.953Z,30.83
2022-10-14T01:42:08.240Z,29.02
2022-10-14T01:44:54.265Z,30.20
2022-10-14T01:47:35.859Z,29.27
2022-10-14T01:50:21.340Z,30.55
2022-10-14T01:53:07.940Z,27.30
2022-10-14T01:55:49.260Z,29.23
2022-10-14T01:58:34.464Z,28.90
2022-10-14T02:01:14.728Z,24.13
2022-10-14T02:03:55.021Z,30.52
2022-10-14T02:06:40.296Z,31.48
2022-10-14T02:09:30.907Z,26.33
2022-10-14T02:12:10.380Z,27.35
2022-10-14T02:15:01.475Z,26.17
2022-10-14T02:17:48.447Z,27.60
2022-10-14T02:20:32.472Z,27.73
2022-10-14T02:23:26.987Z,31.17
2022-10-14T02:26:08.427Z,27.52
2022-10-14T02:28:49.319Z,31.08
2022-10-14T02:31:29.525Z,32.08
2022-10-14T02:34:12.738Z,29.45
2022-10-14T02:36:53.546Z,38.33
2022-10-14T02:39:38.468Z,34.55
2022-10-14T02:42:17.776Z,28.27
2022-10-14T02:45:00.117Z,28.70
2022-10-14T02:47:37.989Z,33.38
2022-10-14T02:50:19.112Z,31.05
2022-10-14T02:52:59.256Z,28.08
2022-10-14T02:55:38.257Z,28.38
2022-10-14T02:58:18.801Z,29.30
2022-10-14T03:00:58.020Z,27.08
2022-10-14T03:03:38.360Z,33.70
2022-10-14T03:06:17.593Z,36.00
2022-10-14T03:08:58.987Z,30.33
2022-10-14T03:11:38.881Z,31.40
2022-10-14T03:14:21.841Z,32.75
2022-10-14T03:17:01.808Z,33.45
2022-10-14T03:19:45.370Z,36.33
2022-10-14T03:22:27.895Z,36.40
2022-10-14T03:25:08.057Z,40.30
2022-10-14T03:27:54.212Z,31.77
2022-10-14T03:30:43.210Z,33.97
2022-10-14T03:33:29.818Z,40.60
2022-10-14T03:36:26.192Z,31.45
2022-10-14T03:39:10.065Z,33.72
2022-10-14T03:42:01.114Z,39.10
2022-10-14T03:44:47.248Z,30.48
2022-10-14T03:47:30.614Z,35.13
2022-10-14T03:50:10.570Z,32.25
2022-10-14T03:53:02.738Z,32.03
2022-10-14T03:55:47.415Z,36.33
2022-10-14T03:58:27.436Z,38.88
2022-10-14T04:01:14.269Z,40.20
2022-10-14T04:04:12.800Z,35.80
2022-10-14T04:06:52.359Z,33.67
2022-10-14T04:09:38.008Z,30.33
2022-10-14T04:12:17.237Z,44.65
2022-10-14T04:15:14.505Z,55.30
2022-10-14T04:18:13.288Z,45.25
2022-10-14T04:20:55.120Z,159.38
2022-10-14T04:23:38.371Z,45.50
2022-10-14T04:26:25.915Z,36.50
2022-10-14T04:29:08.697Z,63.90
2022-10-14T04:31:56.465Z,43.75
2022-10-14T04:34:36.232Z,38.90
2022-10-14T04:37:17.256Z,35.42
2022-10-14T04:40:20.639Z,38.03
2022-10-14T04:43:00.098Z,44.15
2022-10-14T04:45:46.060Z,36.03
2022-10-14T04:48:35.588Z,39.28
2022-10-14T04:51:17.011Z,49.97
2022-10-14T04:54:19.131Z,41.05
2022-10-14T04:57:07.142Z,40.47
2022-10-14T04:59:47.080Z,43.13
2022-10-14T05:02:56.539Z,38.17
2022-10-14T05:05:42.022Z,37.72
2022-10-14T05:08:21.922Z,39.45
2022-10-14T05:11:08.246Z,41.85
2022-10-14T05:14:06.361Z,52.20
2022-10-14T05:16:46.538Z,52.83
2022-10-14T05:19:26.415Z,51.00
2022-10-14T05:22:06.260Z,47.25
2022-10-14T05:24:51.613Z,43.15
2022-10-14T05:27:34.102Z,46.47
2022-10-14T05:30:16.900Z,44.85
2022-10-14T05:33:01.679Z,42.50
2022-10-14T05:35:57.995Z,91.82
2022-10-14T05:38:39.674Z,56.42
2022-10-14T05:41:20.042Z,81.10
2022-10-14T05:43:58.434Z,68.85
2022-10-14T05:46:38.655Z,63.47
2022-10-14T05:49:20.937Z,57.15
2022-10-14T05:52:00.660Z,45.15
2022-10-14T05:54:42.324Z,46.03
2022-10-14T05:57:25.715Z,56.05
2022-10-14T06:00:07.123Z,63.78
2022-10-14T06:02:59.970Z,57.72
2022-10-14T06:05:38.463Z,54.72
2022-10-14T06:08:17.760Z,60.10
2022-10-14T06:10:57.672Z,54.78
2022-10-14T06:13:37.709Z,48.08
2022-10-14T06:16:19.657Z,58.88
2022-10-14T06:18:58.667Z,65.57
2022-10-14T06:21:38.727Z,56.72
2022-10-14T06:24:18.395Z,49.22
2022-10-14T06:26:58.393Z,53.92
2022-10-14T06:29:38.580Z,51.28
2022-10-14T06:32:17.823Z,55.53
2022-10-14T06:34:58.321Z,51.72
2022-10-14T06:37:37.706Z,50.78
2022-10-14T06:40:29.197Z,48.95
2022-10-14T06:43:09.020Z,50.38
2022-10-14T06:45:58.465Z,48.47
2022-10-14T06:48:39.765Z,45.88
2022-10-14T06:51:20.918Z,53.95
2022-10-14T06:54:00.097Z,54.08
2022-10-14T06:56:39.474Z,51.95
2022-10-14T06:59:46.167Z,57.75
2022-10-14T07:02:26.077Z,53.35
2022-10-14T07:05:04.952Z,49.60
2022-10-14T07:07:47.027Z,51.83
2022-10-14T07:10:28.656Z,54.35
2022-10-14T07:13:07.978Z,56.00
2022-10-14T07:15:52.391Z,51.53
2022-10-14T07:18:32.410Z,51.58
2022-10-14T07:21:12.139Z,51.08
2022-10-14T07:23:51.840Z,55.00
2022-10-14T07:26:32.739Z,53.47
2022-10-14T07:29:12.195Z,48.92
2022-10-14T07:31:51.702Z,47.63
2022-10-14T07:34:29.781Z,52.33
2022-10-14T07:37:09.496Z,46.88
2022-10-14T07:39:49.648Z,51.03
2022-10-14T07:42:29.414Z,51.15
2022-10-14T07:45:09.947Z,45.63
2022-10-14T07:47:50.631Z,47.42
2022-10-14T07:50:30.809Z,46.50
2022-10-14T07:53:10.303Z,57.70
2022-10-14T07:55:52.618Z,55.60
2022-10-14T07:58:32.365Z,49.03
2022-10-14T08:01:11.495Z,40.75
2022-10-14T08:03:52.105Z,48.22
2022-10-14T08:06:30.963Z,48.00
2022-10-14T08:09:14.024Z,46.20
2022-10-14T08:11:53.752Z,57.47
2022-10-14T08:14:33.518Z,48.60
2022-10-14T08:17:13.368Z,50.25
2022-10-14T08:19:53.904Z,47.22
2022-10-14T08:22:33.846Z,45.20
2022-10-14T08:25:12.839Z,42.80
2022-10-14T08:27:51.815Z,47.70
2022-10-14T08:30:32.444Z,44.53
2022-10-14T08:33:13.231Z,54.05
2022-10-14T08:35:54.108Z,46.60
2022-10-14T08:38:33.639Z,45.67
2022-10-14T08:41:13.723Z,48.17
2022-10-14T08:44:26.076Z,43.50
2022-10-14T08:47:05.260Z,44.53
2022-10-14T08:49:59.033Z,47.75
2022-10-14T08:52:45.660Z,43.75
2022-10-14T08:55:39.697Z,45.33
2022-10-14T08:58:43.604Z,46.53
2022-10-14T09:01:27.987Z,47.83
2022-10-14T09:04:15.840Z,47.20
2022-10-14T09:06:56.042Z,50.95
2022-10-14T09:09:43.577Z,47.25
2022-10-14T09:12:27.296Z,44.60
2022-10-14T09:15:10.418Z,46.08
2022-10-14T09:18:08.528Z,50.70
2022-10-14T09:20:48.743Z,50.10
2022-10-14T09:23:28.526Z,42.20
2022-10-14T09:26:17.530Z,49.47
2022-10-14T09:28:57.311Z,44.15
2022-10-14T09:31:36.975Z,51.35
2022-10-14T09:34:25.871Z,47.22
2022-10-14T09:37:33.654Z,39.47
2022-10-14T09:40:13.659Z,43.97
2022-10-14T09:43:01.244Z,41.90
2022-10-14T09:46:02.527Z,44.72
2022-10-14T09:48:50.537Z,43.65
2022-10-14T09:51:32.147Z,43.35
2022-10-14T09:54:28.552Z,43.13
2022-10-14T09:57:17.701Z,49.22
2022-10-14T10:00:02.070Z,49.47
2022-10-14T10:02:48.472Z,45.08
2022-10-14T10:05:34.214Z,49.10
2022-10-14T10:08:14.835Z,46.05
2022-10-14T10:11:11.329Z,43.63
2022-10-14T10:13:52.630Z,53.97
2022-10-14T10:16:34.959Z,56.28
2022-10-14T10:19:48.048Z,50.45
2022-10-14T10:22:34.174Z,57.20
2022-10-14T10:25:13.050Z,50.58
2022-10-14T10:27:52.978Z,49.97
2022-10-14T10:31:04.608Z,47.00
2022-10-14T10:33:44.076Z,47.28
2022-10-14T10:36:50.941Z,54.08
2022-10-14T10:39:40.157Z,43.03
2022-10-14T10:42:41.248Z,45.42
2022-10-14T10:45:35.537Z,44.47
2022-10-14T10:48:46.777Z,47.28
2022-10-14T10:51:38.431Z,40.88
2022-10-14T10:54:39.550Z,46.20
2022-10-14T10:57:32.208Z,39.92
2022-10-14T11:00:17.255Z,44.75
2022-10-14T11:03:29.851Z,38.53
2022-10-14T11:06:37.055Z,41.47
2022-10-14T11:10:02.551Z,49.42
2022-10-14T11:13:03.984Z,43.35
2022-10-14T11:15:57.765Z,51.83
2022-10-14T11:18:45.649Z,54.53
2022-10-14T11:21:38.446Z,43.13
2022-10-14T11:24:20.372Z,37.97
2022-10-14T11:27:12.088Z,35.70
2022-10-14T11:29:50.299Z,39.85
2022-10-14T11:32:30.814Z,34.95
2022-10-14T11:41:22.575Z,44.13
2022-10-14T11:43:59.857Z,44.63
2022-10-14T11:46:35.743Z,48.78
2022-10-14T11:49:13.695Z,45.38
2022-10-14T11:51:50.118Z,38.97
2022-10-14T11:54:38.924Z,62.72
2022-10-14T11:57:32.858Z,72.90
2022-10-14T12:00:24.014Z,44.08
2022-10-14T12:02:59.695Z,82.55
2022-10-14T12:05:54.699Z,44.05
2022-10-14T12:08:51.536Z,43.10
2022-10-14T12:11:38.225Z,42.20
2022-10-14T12:14:31.231Z,47.03
2022-10-14T12:17:03.999Z,44.40
2022-10-14T12:19:33.196Z,38.58
2022-10-14T12:22:04.512Z,43.03
2022-10-14T12:24:38.422Z,42.55
2022-10-14T12:27:10.676Z,38.28
2022-10-14T12:29:44.111Z,38.78
2022-10-14T12:32:21.210Z,39.53
2022-10-14T12:34:56.342Z,40.58
2022-10-14T12:37:35.672Z,37.88
2022-10-14T12:40:06.984Z,43.13
2022-10-14T12:42:45.247Z,41.15
2022-10-14T12:45:20.380Z,42.13
2022-10-14T12:48:01.991Z,44.60
2022-10-14T12:50:35.802Z,43.80
2022-10-14T12:58:15.274Z,41.10
2022-10-14T13:01:53.426Z,41.40
2022-10-14T13:05:34.913Z,33.88
2022-10-14T13:08:20.083Z,36.60
2022-10-14T13:11:04.811Z,35.60
2022-10-14T13:13:49.342Z,43.60
2022-10-14T13:16:26.975Z,40.92
2022-10-14T13:19:01.716Z,39.53
2022-10-14T13:21:34.646Z,36.20
2022-10-14T13:24:06.383Z,36.83
2022-10-14T13:26:53.837Z,42.92
2022-10-14T13:30:03.334Z,42.95
2022-10-14T13:40:04.732Z,44.95
2022-10-14T13:43:34.646Z,35.08
2022-10-14T13:46:57.232Z,36.45
2022-10-14T13:50:22.198Z,38.28
2022-10-14T13:53:43.963Z,34.10
2022-10-14T13:56:47.704Z,38.20
2022-10-14T14:03:59.082Z,44.60
2022-10-14T14:07:18.718Z,39.10
2022-10-14T14:14:06.988Z,38.47
2022-10-14T14:16:42.852Z,50.85
2022-10-14T14:19:36.876Z,54.60
2022-10-14T14:22:28.812Z,43.72
2022-10-14T14:25:43.051Z,38.55
2022-10-14T14:28:17.833Z,41.53
2022-10-14T14:30:54.996Z,40.17
2022-10-14T14:33:34.018Z,60.75
2022-10-14T14:36:05.719Z,46.92
2022-10-14T14:38:37.246Z,46.55
2022-10-14T14:41:22.593Z,51.05
2022-10-14T14:44:24.113Z,63.60
2022-10-14T14:46:46.969Z,57.22
2022-10-14T14:49:24.630Z,70.05
2022-10-14T14:51:54.367Z,54.33
2022-10-14T14:54:24.408Z,60.42
2022-10-14T14:57:06.268Z,49.00
2022-10-14T14:59:42.280Z,32.38
2022-10-14T15:02:21.362Z,37.08
2022-10-14T15:05:05.676Z,30.27
2022-10-14T15:07:35.838Z,33.38
2022-10-14T15:10:07.670Z,41.33
2022-10-14T15:12:42.039Z,36.25
2022-10-14T15:15:33.607Z,38.35
2022-10-14T15:18:24.628Z,46.10
2022-10-14T15:21:04.067Z,100.07
2022-10-14T15:23:50.677Z,99.40
2022-10-14T15:26:36.125Z,152.27
2022-10-14T15:32:15.798Z,107.22
2022-10-14T15:34:44.326Z,73.75
2022-10-14T15:37:14.140Z,68.53
2022-10-14T15:39:42.378Z,68.75
2022-10-14T15:42:13.038Z,67.35
2022-10-14T15:44:41.096Z,66.40
2022-10-14T15:47:21.297Z,68.15
2022-10-14T15:49:50.901Z,67.40
2022-10-14T15:52:23.016Z,74.97
2022-10-14T15:56:06.999Z,194.57
2022-10-14T16:00:09.899Z,115.18
2022-10-14T16:03:51.806Z,110.47
2022-10-14T16:08:07.226Z,110.07
2022-10-14T16:11:14.354Z,107.25
2022-10-14T16:14:59.420Z,128.70
2022-10-14T16:18:46.178Z,111.70
2022-10-14T16:22:03.797Z,110.43
2022-10-14T16:25:44.091Z,90.55
2022-10-14T16:29:30.111Z,84.32
2022-10-14T16:33:20.671Z,87.72
2022-10-14T16:36:41.259Z,60.63
2022-10-14T16:40:02.167Z,83.40
2022-10-14T16:44:15.030Z,135.35
2022-10-14T16:48:11.586Z,150.90
2022-10-14T16:55:55.993Z,275.88
2022-10-14T17:02:44.310Z,192.65
2022-10-14T17:12:24.680Z,134.98
2022-10-14T17:20:05.153Z,134.27
2022-10-14T17:23:48.541Z,116.45
2022-10-14T17:27:53.243Z,145.85
2022-10-14T17:33:56.181Z,139.00
2022-10-14T17:36:30.926Z,154.13
2022-10-14T17:39:00.473Z,154.73
2022-10-14T17:41:30.268Z,142.45
2022-10-14T17:44:01.422Z,135.02
2022-10-14T17:46:31.712Z,134.88
2022-10-14T17:49:04.054Z,119.13
2022-10-14T17:51:33.355Z,127.88
2022-10-14T17:54:04.012Z,143.70
2022-10-14T17:56:34.129Z,103.35
2022-10-14T17:59:08.684Z,100.07
2022-10-14T18:02:01.046Z,112.93
2022-10-14T18:04:26.178Z,152.17
2022-10-14T18:06:54.701Z,201.93
2022-10-14T18:09:22.985Z,460.30
2022-10-14T18:12:10.634Z,316.60
2022-10-14T18:14:42.498Z,388.23
2022-10-14T18:17:12.541Z,256.90
2022-10-14T18:19:42.241Z,316.17
2022-10-14T18:22:11.501Z,183.13
2022-10-14T18:24:40.628Z,220.35
2022-10-14T18:27:09.838Z,230.10
2022-10-14T18:29:39.425Z,203.38
2022-10-14T18:32:07.862Z,191.00
2022-10-14T18:34:36.560Z,170.63
2022-10-14T18:37:05.146Z,189.05
2022-10-14T18:39:33.801Z,180.30
2022-10-14T18:42:02.419Z,169.35
2022-10-14T18:44:32.349Z,190.88
2022-10-14T18:47:00.981Z,168.35
2022-10-14T18:49:29.968Z,162.48
2022-10-14T18:51:59.656Z,152.90
2022-10-14T18:54:30.299Z,145.15
2022-10-14T18:56:59.912Z,135.02
2022-10-14T18:59:29.542Z,136.40
2022-10-14T19:01:58.451Z,141.40
2022-10-14T19:04:27.585Z,124.38
2022-10-14T19:06:56.588Z,151.75
2022-10-14T19:09:29.757Z,156.68
2022-10-14T19:11:59.649Z,158.60
2022-10-14T19:14:29.512Z,158.48
2022-10-14T19:16:58.295Z,138.93
2022-10-14T19:19:26.917Z,195.57
2022-10-14T19:21:59.754Z,220.32
2022-10-14T19:24:28.549Z,247.57
2022-10-14T19:26:58.523Z,263.10
2022-10-14T19:29:28.043Z,517.38
2022-10-14T19:31:57.439Z,563.92
2022-10-14T19:34:28.064Z,430.55
2022-10-14T19:37:00.666Z,346.48
2022-10-14T19:39:31.199Z,321.23
2022-10-14T19:42:00.363Z,277.90
2022-10-14T19:44:29.591Z,244.27
2022-10-14T19:47:04.847Z,213.95
2022-10-14T19:49:34.437Z,198.30
2022-10-14T19:52:03.821Z,157.93
2022-10-14T19:54:34.097Z,164.30
2022-10-14T19:57:03.052Z,142.82
2022-10-14T19:59:32.506Z,149.88
2022-10-14T20:02:01.316Z,140.30
2022-10-14T20:04:30.222Z,130.98
2022-10-14T20:07:00.307Z,123.60
2022-10-14T20:09:33.344Z,118.43
2022-10-14T20:12:05.349Z,111.63
2022-10-14T20:14:36.143Z,96.70
2022-10-14T20:17:06.306Z,97.25
2022-10-14T20:19:38.345Z,98.20
2022-10-14T20:22:10.797Z,91.78
2022-10-14T20:24:41.183Z,102.80
2022-10-14T20:27:12.035Z,122.63
2022-10-14T20:29:41.594Z,114.75
2022-10-14T20:32:11.205Z,123.05
2022-10-14T20:34:39.912Z,130.07
2022-10-14T20:37:08.603Z,125.05
2022-10-14T20:39:37.168Z,127.18
2022-10-14T20:42:07.371Z,119.15
2022-10-14T20:44:39.087Z,128.25
2022-10-14T20:47:08.591Z,116.90
2022-10-14T20:49:37.531Z,106.30
2022-10-14T20:52:06.084Z,104.25
2022-10-14T20:54:34.984Z,114.40
2022-10-14T20:57:03.933Z,105.47
2022-10-14T20:59:32.660Z,93.15
2022-10-14T21:02:01.215Z,92.82
2022-10-14T21:04:29.438Z,95.35
2022-10-14T21:06:57.921Z,91.72
2022-10-14T21:09:27.192Z,94.65
2022-10-14T21:11:55.283Z,91.47
2022-10-14T21:14:23.691Z,79.07
2022-10-14T21:16:53.818Z,88.38
2022-10-14T21:19:22.171Z,85.60
2022-10-14T21:21:50.359Z,77.60
2022-10-14T21:24:20.369Z,87.70
2022-10-14T21:26:52.271Z,87.03
2022-10-14T21:29:21.761Z,78.07
2022-10-14T21:31:50.549Z,78.03
2022-10-14T21:34:18.764Z,73.57
2022-10-14T21:36:47.005Z,75.68
2022-10-14T21:39:18.076Z,70.80
2022-10-14T21:41:47.360Z,75.65
2022-10-14T21:44:19.857Z,66.20
2022-10-14T21:46:49.071Z,74.25
2022-10-14T21:49:17.924Z,72.80
2022-10-14T21:51:46.025Z,81.22
2022-10-14T21:54:14.372Z,79.80
2022-10-14T21:56:42.693Z,77.22
2022-10-14T21:59:11.866Z,82.63
2022-10-14T22:01:40.150Z,87.17
2022-10-14T22:04:09.346Z,78.53
2022-10-14T22:06:37.596Z,81.80
2022-10-14T22:09:07.602Z,78.20
2022-10-14T22:11:38.861Z,81.68
2022-10-14T22:14:10.621Z,82.35
2022-10-14T22:16:39.174Z,79.53
2022-10-14T22:19:07.614Z,90.05
2022-10-14T22:21:37.941Z,102.30
2022-10-14T22:26:37.697Z,101.60
2022-10-14T22:29:07.459Z,88.07
2022-10-14T22:34:14.505Z,93.10
2022-10-14T22:36:46.159Z,93.30
2022-10-14T22:39:19.363Z,95.63
2022-10-14T22:41:47.966Z,90.13
2022-10-14T22:44:19.258Z,84.40
2022-10-14T22:46:47.287Z,92.55
2022-10-14T22:49:15.939Z,82.20
2022-10-14T22:51:43.818Z,85.93
2022-10-14T22:54:11.993Z,84.63
2022-10-14T22:56:40.705Z,81.00
2022-10-14T22:59:11.238Z,76.50
2022-10-14T23:01:41.275Z,70.15
2022-10-14T23:04:10.896Z,65.97
2022-10-14T23:06:40.294Z,73.68
2022-10-14T23:09:08.156Z,69.72
2022-10-14T23:11:36.340Z,70.05
2022-10-14T23:14:06.345Z,77.43
2022-10-14T23:16:36.193Z,76.32
2022-10-14T23:19:04.260Z,76.45
2022-10-14T23:21:34.392Z,78.18
2022-10-14T23:24:05.287Z,84.53
2022-10-14T23:26:35.213Z,74.65
2022-10-14T23:29:09.993Z,72.72
2022-10-14T23:31:39.803Z,58.00
2022-10-14T23:34:13.166Z,61.45
2022-10-14T23:36:41.841Z,67.75
2022-10-14T23:39:10.042Z,58.88
2022-10-14T23:41:38.021Z,62.90
2022-10-14T23:44:06.259Z,60.47
2022-10-14T23:46:34.142Z,59.78
2022-10-14T23:49:08.042Z,61.65
2022-10-14T23:51:49.607Z,57.58
2022-10-14T23:54:17.677Z,61.80
2022-10-14T23:56:45.744Z,59.92
2022-10-14T23:59:14.209Z,62.85
